sensor_id;sensor_type;location;lat;lon;timestamp;P1;P2;P0
70520;PMS5003;58442;52.716;23.560;2023-03-05T00:03:21;13;13;8
70520;PMS5003;58442;52.716;23.560;2023-03-05T00:05:22;6;6;5
70520;PMS5003;58442;52.716;23.560;2023-03-05T00:07:23;5;5;1
70520;PMS5003;58442;52.716;23.560;2023-03-05T00:09:25;17;17;7
70520;PMS5003;58442;52.716;23.560;2023-03-05T00:11:36;11;10;7
70520;PMS5003;58442;52.716;23.560;2023-03-05T00:13:37;9;8;4
70520;PMS5003;58442;52.716;23.560;2023-03-05T00:15:40;5;5;2
70520;PMS5003;58442;52.716;23.560;2023-03-05T00:17:42;11;11;6
70520;PMS5003;58442;52.716;23.560;2023-03-05T00:19:51;10;10;7
70520;PMS5003;58442;52.716;23.560;2023-03-05T00:21:52;7;7;4
70520;PMS5003;58442;52.716;23.560;2023-03-05T00:23:55;14;14;7
70520;PMS5003;58442;52.716;23.560;2023-03-05T00:26:00;6;6;5
70520;PMS5003;58442;52.716;23.560;2023-03-05T00:28:06;11;11;7
70520;PMS5003;58442;52.716;23.560;2023-03-05T00:30:08;8;8;5
70520;PMS5003;58442;52.716;23.560;2023-03-05T00:32:10;10;8;5
70520;PMS5003;58442;52.716;23.560;2023-03-05T00:34:13;7;7;5
70520;PMS5003;58442;52.716;23.560;2023-03-05T00:36:21;5;5;5
70520;PMS5003;58442;52.716;23.560;2023-03-05T00:38:24;3;3;2
70520;PMS5003;58442;52.716;23.560;2023-03-05T00:40:25;9;9;6
70520;PMS5003;58442;52.716;23.560;2023-03-05T00:42:27;7;7;3
70520;PMS5003;58442;52.716;23.560;2023-03-05T00:44:36;6;6;4
70520;PMS5003;58442;52.716;23.560;2023-03-05T00:46:38;3;3;2
70520;PMS5003;58442;52.716;23.560;2023-03-05T00:48:40;14;14;10
70520;PMS5003;58442;52.716;23.560;2023-03-05T00:50:41;6;4;3
70520;PMS5003;58442;52.716;23.560;2023-03-05T00:52:51;4;4;3
70520;PMS5003;58442;52.716;23.560;2023-03-05T00:54:53;14;11;8
70520;PMS5003;58442;52.716;23.560;2023-03-05T00:56:55;12;12;8
70520;PMS5003;58442;52.716;23.560;2023-03-05T00:58:56;30;15;11
70520;PMS5003;58442;52.716;23.560;2023-03-05T01:01:07;11;10;5
70520;PMS5003;58442;52.716;23.560;2023-03-05T01:03:08;6;5;3
70520;PMS5003;58442;52.716;23.560;2023-03-05T01:05:11;7;7;4
70520;PMS5003;58442;52.716;23.560;2023-03-05T01:07:13;10;10;7
70520;PMS5003;58442;52.716;23.560;2023-03-05T01:09:22;2;2;2
70520;PMS5003;58442;52.716;23.560;2023-03-05T01:11:25;8;8;5
70520;PMS5003;58442;52.716;23.560;2023-03-05T01:13:26;12;11;6
70520;PMS5003;58442;52.716;23.560;2023-03-05T01:15:27;8;5;3
70520;PMS5003;58442;52.716;23.560;2023-03-05T01:17:37;6;6;5
70520;PMS5003;58442;52.716;23.560;2023-03-05T01:19:40;4;4;3
70520;PMS5003;58442;52.716;23.560;2023-03-05T01:21:41;4;4;3
70520;PMS5003;58442;52.716;23.560;2023-03-05T01:23:42;4;4;4
70520;PMS5003;58442;52.716;23.560;2023-03-05T01:25:55;3;3;2
70520;PMS5003;58442;52.716;23.560;2023-03-05T01:27:58;9;9;5
70520;PMS5003;58442;52.716;23.560;2023-03-05T01:30:01;7;6;4
70520;PMS5003;58442;52.716;23.560;2023-03-05T01:32:03;9;9;6
70520;PMS5003;58442;52.716;23.560;2023-03-05T01:34:07;6;6;4
70520;PMS5003;58442;52.716;23.560;2023-03-05T01:36:09;2;1;1
70520;PMS5003;58442;52.716;23.560;2023-03-05T01:38:16;5;5;4
70520;PMS5003;58442;52.716;23.560;2023-03-05T01:40:19;6;6;5
70520;PMS5003;58442;52.716;23.560;2023-03-05T01:42:25;5;5;3
70520;PMS5003;58442;52.716;23.560;2023-03-05T01:44:27;6;6;4
70520;PMS5003;58442;52.716;23.560;2023-03-05T01:46:30;6;6;3
70520;PMS5003;58442;52.716;23.560;2023-03-05T01:48:36;5;5;4
70520;PMS5003;58442;52.716;23.560;2023-03-05T01:50:37;4;4;2
70520;PMS5003;58442;52.716;23.560;2023-03-05T01:52:39;4;4;2
70520;PMS5003;58442;52.716;23.560;2023-03-05T01:54:45;6;6;4
70520;PMS5003;58442;52.716;23.560;2023-03-05T01:56:50;5;5;3
70520;PMS5003;58442;52.716;23.560;2023-03-05T01:58:55;2;2;1
70520;PMS5003;58442;52.716;23.560;2023-03-05T02:01:14;2;2;2
70520;PMS5003;58442;52.716;23.560;2023-03-05T02:03:16;1;1;0
70520;PMS5003;58442;52.716;23.560;2023-03-05T02:05:22;3;3;2
70520;PMS5003;58442;52.716;23.560;2023-03-05T02:07:27;1;1;1
70520;PMS5003;58442;52.716;23.560;2023-03-05T02:09:30;3;3;2
70520;PMS5003;58442;52.716;23.560;2023-03-05T02:11:32;0;0;0
70520;PMS5003;58442;52.716;23.560;2023-03-05T02:13:34;1;1;0
70520;PMS5003;58442;52.716;23.560;2023-03-05T02:15:40;2;2;1
70520;PMS5003;58442;52.716;23.560;2023-03-05T02:17:44;2;2;1
70520;PMS5003;58442;52.716;23.560;2023-03-05T02:19:47;2;2;2
70520;PMS5003;58442;52.716;23.560;2023-03-05T02:21:52;1;1;0
70520;PMS5003;58442;52.716;23.560;2023-03-05T02:23:54;2;2;1
70520;PMS5003;58442;52.716;23.560;2023-03-05T02:25:59;0;0;0
70520;PMS5003;58442;52.716;23.560;2023-03-05T02:28:01;2;2;1
70520;PMS5003;58442;52.716;23.560;2023-03-05T02:30:10;2;2;1
70520;PMS5003;58442;52.716;23.560;2023-03-05T02:32:12;5;3;2
70520;PMS5003;58442;52.716;23.560;2023-03-05T02:34:14;0;0;0
70520;PMS5003;58442;52.716;23.560;2023-03-05T02:36:16;1;1;1
70520;PMS5003;58442;52.716;23.560;2023-03-05T02:38:19;2;2;1
70520;PMS5003;58442;52.716;23.560;2023-03-05T02:40:21;2;2;1
70520;PMS5003;58442;52.716;23.560;2023-03-05T02:42:29;3;3;2
70520;PMS5003;58442;52.716;23.560;2023-03-05T02:44:33;0;0;0
70520;PMS5003;58442;52.716;23.560;2023-03-05T02:46:34;0;0;0
70520;PMS5003;58442;52.716;23.560;2023-03-05T02:48:36;3;3;3
70520;PMS5003;58442;52.716;23.560;2023-03-05T02:50:44;3;3;2
70520;PMS5003;58442;52.716;23.560;2023-03-05T02:52:47;3;3;2
70520;PMS5003;58442;52.716;23.560;2023-03-05T02:54:49;4;4;2
70520;PMS5003;58442;52.716;23.560;2023-03-05T02:56:50;4;4;3
70520;PMS5003;58442;52.716;23.560;2023-03-05T02:58:59;2;2;1
70520;PMS5003;58442;52.716;23.560;2023-03-05T03:01:01;1;1;1
70520;PMS5003;58442;52.716;23.560;2023-03-05T03:03:02;6;6;2
70520;PMS5003;58442;52.716;23.560;2023-03-05T03:05:04;0;0;0
70520;PMS5003;58442;52.716;23.560;2023-03-05T03:07:15;1;1;1
70520;PMS5003;58442;52.716;23.560;2023-03-05T03:09:16;1;1;0
70520;PMS5003;58442;52.716;23.560;2023-03-05T03:11:18;0;0;0
70520;PMS5003;58442;52.716;23.560;2023-03-05T03:13:24;1;1;1
70520;PMS5003;58442;52.716;23.560;2023-03-05T03:15:30;0;0;0
70520;PMS5003;58442;52.716;23.560;2023-03-05T03:17:33;9;9;6
70520;PMS5003;58442;52.716;23.560;2023-03-05T03:19:35;2;2;1
70520;PMS5003;58442;52.716;23.560;2023-03-05T03:21:38;2;2;1
70520;PMS5003;58442;52.716;23.560;2023-03-05T03:23:45;2;0;0
70520;PMS5003;58442;52.716;23.560;2023-03-05T03:25:46;2;2;1
70520;PMS5003;58442;52.716;23.560;2023-03-05T03:27:47;2;2;1
70520;PMS5003;58442;52.716;23.560;2023-03-05T03:29:49;0;0;0
70520;PMS5003;58442;52.716;23.560;2023-03-05T03:32:00;4;4;3
70520;PMS5003;58442;52.716;23.560;2023-03-05T03:34:01;5;5;3
70520;PMS5003;58442;52.716;23.560;2023-03-05T03:36:03;0;0;0
70520;PMS5003;58442;52.716;23.560;2023-03-05T03:38:05;2;2;2
70520;PMS5003;58442;52.716;23.560;2023-03-05T03:40:15;2;2;1
70520;PMS5003;58442;52.716;23.560;2023-03-05T03:42:17;4;4;2
70520;PMS5003;58442;52.716;23.560;2023-03-05T03:44:20;1;1;0
70520;PMS5003;58442;52.716;23.560;2023-03-05T03:46:21;3;3;0
70520;PMS5003;58442;52.716;23.560;2023-03-05T03:48:30;2;2;1
70520;PMS5003;58442;52.716;23.560;2023-03-05T03:50:31;4;4;3
70520;PMS5003;58442;52.716;23.560;2023-03-05T03:52:33;2;2;2
70520;PMS5003;58442;52.716;23.560;2023-03-05T03:54:34;7;7;4
70520;PMS5003;58442;52.716;23.560;2023-03-05T03:56:45;0;0;0
70520;PMS5003;58442;52.716;23.560;2023-03-05T03:58:50;4;3;2
70520;PMS5003;58442;52.716;23.560;2023-03-05T04:00:53;5;4;3
70520;PMS5003;58442;52.716;23.560;2023-03-05T04:02:54;3;3;3
70520;PMS5003;58442;52.716;23.560;2023-03-05T04:05:00;7;7;3
70520;PMS5003;58442;52.716;23.560;2023-03-05T04:07:03;5;5;3
70520;PMS5003;58442;52.716;23.560;2023-03-05T04:09:04;2;2;1
70520;PMS5003;58442;52.716;23.560;2023-03-05T04:11:07;3;3;3
70520;PMS5003;58442;52.716;23.560;2023-03-05T04:13:15;5;5;4
70520;PMS5003;58442;52.716;23.560;2023-03-05T04:15:17;5;3;2
70520;PMS5003;58442;52.716;23.560;2023-03-05T04:17:18;2;2;1
70520;PMS5003;58442;52.716;23.560;2023-03-05T04:19:20;0;0;0
70520;PMS5003;58442;52.716;23.560;2023-03-05T04:21:31;2;2;2
70520;PMS5003;58442;52.716;23.560;2023-03-05T04:23:32;1;1;1
70520;PMS5003;58442;52.716;23.560;2023-03-05T04:25:33;4;4;3
70520;PMS5003;58442;52.716;23.560;2023-03-05T04:27:35;6;6;3
70520;PMS5003;58442;52.716;23.560;2023-03-05T04:29:46;2;2;1
70520;PMS5003;58442;52.716;23.560;2023-03-05T04:31:47;2;2;1
70520;PMS5003;58442;52.716;23.560;2023-03-05T04:33:48;1;1;0
70520;PMS5003;58442;52.716;23.560;2023-03-05T04:35:50;3;2;1
70520;PMS5003;58442;52.716;23.560;2023-03-05T04:38:01;1;1;1
70520;PMS5003;58442;52.716;23.560;2023-03-05T04:40:02;0;0;0
70520;PMS5003;58442;52.716;23.560;2023-03-05T04:42:05;11;10;6
70520;PMS5003;58442;52.716;23.560;2023-03-05T04:44:06;7;7;4
70520;PMS5003;58442;52.716;23.560;2023-03-05T04:46:16;5;5;3
70520;PMS5003;58442;52.716;23.560;2023-03-05T04:48:17;1;1;1
70520;PMS5003;58442;52.716;23.560;2023-03-05T04:50:19;2;2;2
70520;PMS5003;58442;52.716;23.560;2023-03-05T04:52:20;2;2;1
70520;PMS5003;58442;52.716;23.560;2023-03-05T04:54:31;2;2;1
70520;PMS5003;58442;52.716;23.560;2023-03-05T04:56:33;3;3;2
70520;PMS5003;58442;52.716;23.560;2023-03-05T04:58:34;3;3;3
70520;PMS5003;58442;52.716;23.560;2023-03-05T05:00:36;2;2;1
70520;PMS5003;58442;52.716;23.560;2023-03-05T05:02:47;3;3;2
70520;PMS5003;58442;52.716;23.560;2023-03-05T05:04:52;1;1;0
70520;PMS5003;58442;52.716;23.560;2023-03-05T05:06:57;0;0;0
70520;PMS5003;58442;52.716;23.560;2023-03-05T05:08:58;1;1;0
70520;PMS5003;58442;52.716;23.560;2023-03-05T05:11:02;3;3;2
70520;PMS5003;58442;52.716;23.560;2023-03-05T05:13:06;2;2;1
70520;PMS5003;58442;52.716;23.560;2023-03-05T05:15:07;6;4;2
70520;PMS5003;58442;52.716;23.560;2023-03-05T05:17:09;3;3;1
70520;PMS5003;58442;52.716;23.560;2023-03-05T05:19:16;8;8;5
70520;PMS5003;58442;52.716;23.560;2023-03-05T05:21:18;1;1;0
70520;PMS5003;58442;52.716;23.560;2023-03-05T05:23:20;3;3;1
70520;PMS5003;58442;52.716;23.560;2023-03-05T05:25:21;1;1;1
70520;PMS5003;58442;52.716;23.560;2023-03-05T05:27:31;4;3;1
70520;PMS5003;58442;52.716;23.560;2023-03-05T05:29:33;3;3;2
70520;PMS5003;58442;52.716;23.560;2023-03-05T05:31:34;2;2;1
70520;PMS5003;58442;52.716;23.560;2023-03-05T05:33:36;5;3;1
70520;PMS5003;58442;52.716;23.560;2023-03-05T05:35:47;0;0;0
70520;PMS5003;58442;52.716;23.560;2023-03-05T05:37:48;3;3;2
70520;PMS5003;58442;52.716;23.560;2023-03-05T05:39:49;1;1;1
70520;PMS5003;58442;52.716;23.560;2023-03-05T05:41:51;1;1;1
70520;PMS5003;58442;52.716;23.560;2023-03-05T05:44:02;6;5;3
70520;PMS5003;58442;52.716;23.560;2023-03-05T05:46:04;2;2;2
70520;PMS5003;58442;52.716;23.560;2023-03-05T05:48:07;1;1;0
70520;PMS5003;58442;52.716;23.560;2023-03-05T05:50:09;11;11;6
70520;PMS5003;58442;52.716;23.560;2023-03-05T05:52:17;2;2;2
70520;PMS5003;58442;52.716;23.560;2023-03-05T05:54:18;21;18;8
70520;PMS5003;58442;52.716;23.560;2023-03-05T05:56:19;6;6;5
70520;PMS5003;58442;52.716;23.560;2023-03-05T05:58:21;4;4;2
70520;PMS5003;58442;52.716;23.560;2023-03-05T06:00:32;5;4;2
70520;PMS5003;58442;52.716;23.560;2023-03-05T06:02:36;2;2;2
70520;PMS5003;58442;52.716;23.560;2023-03-05T06:04:41;3;3;1
70520;PMS5003;58442;52.716;23.560;2023-03-05T06:06:42;3;2;1
70520;PMS5003;58442;52.716;23.560;2023-03-05T06:08:47;3;3;2
70520;PMS5003;58442;52.716;23.560;2023-03-05T06:10:53;6;6;3
70520;PMS5003;58442;52.716;23.560;2023-03-05T06:12:55;4;4;2
70520;PMS5003;58442;52.716;23.560;2023-03-05T06:14:57;0;0;0
70520;PMS5003;58442;52.716;23.560;2023-03-05T06:17:02;3;3;2
70520;PMS5003;58442;52.716;23.560;2023-03-05T06:19:04;6;6;4
70520;PMS5003;58442;52.716;23.560;2023-03-05T06:21:06;5;5;4
70520;PMS5003;58442;52.716;23.560;2023-03-05T06:23:11;2;2;1
70520;PMS5003;58442;52.716;23.560;2023-03-05T06:25:17;7;7;5
70520;PMS5003;58442;52.716;23.560;2023-03-05T06:27:19;4;4;3
70520;PMS5003;58442;52.716;23.560;2023-03-05T06:29:20;3;3;1
70520;PMS5003;58442;52.716;23.560;2023-03-05T06:31:23;11;6;4
70520;PMS5003;58442;52.716;23.560;2023-03-05T06:33:33;14;13;6
70520;PMS5003;58442;52.716;23.560;2023-03-05T06:35:36;7;6;4
70520;PMS5003;58442;52.716;23.560;2023-03-05T06:37:42;11;10;5
70520;PMS5003;58442;52.716;23.560;2023-03-05T06:39:44;42;37;22
70520;PMS5003;58442;52.716;23.560;2023-03-05T06:41:49;12;10;6
70520;PMS5003;58442;52.716;23.560;2023-03-05T06:43:51;51;40;22
70520;PMS5003;58442;52.716;23.560;2023-03-05T06:48:04;7;7;4
70520;PMS5003;58442;52.716;23.560;2023-03-05T06:50:05;18;18;14
70520;PMS5003;58442;52.716;23.560;2023-03-05T06:52:08;28;24;18
70520;PMS5003;58442;52.716;23.560;2023-03-05T06:54:13;3;3;2
70520;PMS5003;58442;52.716;23.560;2023-03-05T06:56:16;13;13;8
70520;PMS5003;58442;52.716;23.560;2023-03-05T06:58:19;52;38;21
70520;PMS5003;58442;52.716;23.560;2023-03-05T07:00:21;14;14;9
70520;PMS5003;58442;52.716;23.560;2023-03-05T07:02:25;15;14;9
70520;PMS5003;58442;52.716;23.560;2023-03-05T07:04:26;12;11;7
70520;PMS5003;58442;52.716;23.560;2023-03-05T07:06:34;25;22;10
70520;PMS5003;58442;52.716;23.560;2023-03-05T07:08:38;41;29;16
70520;PMS5003;58442;52.716;23.560;2023-03-05T07:10:40;9;9;5
70520;PMS5003;58442;52.716;23.560;2023-03-05T07:12:42;20;18;8
70520;PMS5003;58442;52.716;23.560;2023-03-05T07:14:48;12;12;7
70520;PMS5003;58442;52.716;23.560;2023-03-05T07:16:49;3;3;3
70520;PMS5003;58442;52.716;23.560;2023-03-05T07:18:51;5;5;3
70520;PMS5003;58442;52.716;23.560;2023-03-05T07:20:54;18;16;9
70520;PMS5003;58442;52.716;23.560;2023-03-05T07:23:03;14;13;7
70520;PMS5003;58442;52.716;23.560;2023-03-05T07:25:05;8;8;6
70520;PMS5003;58442;52.716;23.560;2023-03-05T07:27:06;16;12;7
70520;PMS5003;58442;52.716;23.560;2023-03-05T07:29:08;12;12;9
70520;PMS5003;58442;52.716;23.560;2023-03-05T07:31:19;16;16;12
70520;PMS5003;58442;52.716;23.560;2023-03-05T07:33:23;12;12;7
70520;PMS5003;58442;52.716;23.560;2023-03-05T07:35:24;11;11;7
70520;PMS5003;58442;52.716;23.560;2023-03-05T07:37:26;9;8;3
70520;PMS5003;58442;52.716;23.560;2023-03-05T07:39:33;27;25;14
70520;PMS5003;58442;52.716;23.560;2023-03-05T07:41:35;20;19;7
70520;PMS5003;58442;52.716;23.560;2023-03-05T07:43:36;6;6;4
70520;PMS5003;58442;52.716;23.560;2023-03-05T07:45:39;10;10;7
70520;PMS5003;58442;52.716;23.560;2023-03-05T07:47:48;20;18;8
70520;PMS5003;58442;52.716;23.560;2023-03-05T07:49:50;7;6;5
70520;PMS5003;58442;52.716;23.560;2023-03-05T07:51:51;6;6;4
70520;PMS5003;58442;52.716;23.560;2023-03-05T07:53:53;7;7;5
70520;PMS5003;58442;52.716;23.560;2023-03-05T07:56:04;5;5;4
70520;PMS5003;58442;52.716;23.560;2023-03-05T07:58:05;2;2;2
70520;PMS5003;58442;52.716;23.560;2023-03-05T08:00:07;5;5;3
70520;PMS5003;58442;52.716;23.560;2023-03-05T08:02:10;7;6;4
70520;PMS5003;58442;52.716;23.560;2023-03-05T08:04:18;9;9;5
70520;PMS5003;58442;52.716;23.560;2023-03-05T08:06:20;3;3;3
70520;PMS5003;58442;52.716;23.560;2023-03-05T08:08:21;9;8;4
70520;PMS5003;58442;52.716;23.560;2023-03-05T08:10:23;5;5;2
70520;PMS5003;58442;52.716;23.560;2023-03-05T08:12:33;3;3;2
70520;PMS5003;58442;52.716;23.560;2023-03-05T08:14:35;3;3;2
70520;PMS5003;58442;52.716;23.560;2023-03-05T08:16:37;3;2;2
70520;PMS5003;58442;52.716;23.560;2023-03-05T08:18:40;4;4;3
70520;PMS5003;58442;52.716;23.560;2023-03-05T08:20:48;2;2;1
70520;PMS5003;58442;52.716;23.560;2023-03-05T08:22:50;5;5;3
70520;PMS5003;58442;52.716;23.560;2023-03-05T08:25:57;1;1;0
70520;PMS5003;58442;52.716;23.560;2023-03-05T08:27:58;4;3;2
70520;PMS5003;58442;52.716;23.560;2023-03-05T08:30:00;1;1;1
70520;PMS5003;58442;52.716;23.560;2023-03-05T08:32:12;3;3;2
70520;PMS5003;58442;52.716;23.560;2023-03-05T08:34:13;1;1;1
70520;PMS5003;58442;52.716;23.560;2023-03-05T08:36:15;3;3;2
70520;PMS5003;58442;52.716;23.560;2023-03-05T08:38:17;2;2;1
70520;PMS5003;58442;52.716;23.560;2023-03-05T08:40:27;2;2;1
70520;PMS5003;58442;52.716;23.560;2023-03-05T08:42:28;2;2;2
70520;PMS5003;58442;52.716;23.560;2023-03-05T08:44:30;3;3;1
70520;PMS5003;58442;52.716;23.560;2023-03-05T08:46:31;1;1;1
70520;PMS5003;58442;52.716;23.560;2023-03-05T08:48:42;3;3;1
70520;PMS5003;58442;52.716;23.560;2023-03-05T08:50:43;2;2;2
70520;PMS5003;58442;52.716;23.560;2023-03-05T08:52:45;4;4;3
70520;PMS5003;58442;52.716;23.560;2023-03-05T08:54:46;1;1;1
70520;PMS5003;58442;52.716;23.560;2023-03-05T08:56:57;2;2;0
70520;PMS5003;58442;52.716;23.560;2023-03-05T08:58:58;4;4;3
70520;PMS5003;58442;52.716;23.560;2023-03-05T09:00:59;3;3;1
70520;PMS5003;58442;52.716;23.560;2023-03-05T09:03:01;2;2;1
70520;PMS5003;58442;52.716;23.560;2023-03-05T09:05:12;1;1;1
70520;PMS5003;58442;52.716;23.560;2023-03-05T09:07:14;3;3;2
70520;PMS5003;58442;52.716;23.560;2023-03-05T09:09:15;2;2;2
70520;PMS5003;58442;52.716;23.560;2023-03-05T09:11:20;2;2;1
70520;PMS5003;58442;52.716;23.560;2023-03-05T09:13:27;4;4;2
70520;PMS5003;58442;52.716;23.560;2023-03-05T09:15:29;1;1;1
70520;PMS5003;58442;52.716;23.560;2023-03-05T09:17:31;1;1;1
70520;PMS5003;58442;52.716;23.560;2023-03-05T09:19:32;2;2;1
70520;PMS5003;58442;52.716;23.560;2023-03-05T09:21:42;1;1;1
70520;PMS5003;58442;52.716;23.560;2023-03-05T09:23:44;2;2;1
70520;PMS5003;58442;52.716;23.560;2023-03-05T09:25:46;2;2;1
70520;PMS5003;58442;52.716;23.560;2023-03-05T09:27:49;1;1;1
70520;PMS5003;58442;52.716;23.560;2023-03-05T09:29:57;3;3;2
70520;PMS5003;58442;52.716;23.560;2023-03-05T09:31:58;2;2;1
70520;PMS5003;58442;52.716;23.560;2023-03-05T09:34:00;4;4;2
70520;PMS5003;58442;52.716;23.560;2023-03-05T09:36:01;5;5;3
70520;PMS5003;58442;52.716;23.560;2023-03-05T09:38:12;0;0;0
70520;PMS5003;58442;52.716;23.560;2023-03-05T09:40:14;0;0;0
70520;PMS5003;58442;52.716;23.560;2023-03-05T09:44:34;3;3;3
70520;PMS5003;58442;52.716;23.560;2023-03-05T09:46:47;4;4;2
70520;PMS5003;58442;52.716;23.560;2023-03-05T09:51:11;3;3;2
70520;PMS5003;58442;52.716;23.560;2023-03-05T09:53:36;3;3;2
70520;PMS5003;58442;52.716;23.560;2023-03-05T09:55:53;1;1;1
70520;PMS5003;58442;52.716;23.560;2023-03-05T09:58:02;2;2;1
70520;PMS5003;58442;52.716;23.560;2023-03-05T10:00:20;3;3;2
70520;PMS5003;58442;52.716;23.560;2023-03-05T10:02:30;1;1;0
70520;PMS5003;58442;52.716;23.560;2023-03-05T10:09:03;1;1;1
70520;PMS5003;58442;52.716;23.560;2023-03-05T10:11:23;2;2;1
70520;PMS5003;58442;52.716;23.560;2023-03-05T10:13:37;2;2;2
70520;PMS5003;58442;52.716;23.560;2023-03-05T10:15:43;3;3;2
70520;PMS5003;58442;52.716;23.560;2023-03-05T10:22:20;3;3;2
70520;PMS5003;58442;52.716;23.560;2023-03-05T10:24:36;2;2;1
70520;PMS5003;58442;52.716;23.560;2023-03-05T10:33:48;2;2;1
70520;PMS5003;58442;52.716;23.560;2023-03-05T10:36:09;1;1;0
70520;PMS5003;58442;52.716;23.560;2023-03-05T10:38:23;1;1;1
70520;PMS5003;58442;52.716;23.560;2023-03-05T10:45:08;0;0;0
70520;PMS5003;58442;52.716;23.560;2023-03-05T10:49:29;2;2;1
70520;PMS5003;58442;52.716;23.560;2023-03-05T10:56:26;18;17;9
70520;PMS5003;58442;52.716;23.560;2023-03-05T10:58:28;10;10;7
70520;PMS5003;58442;52.716;23.560;2023-03-05T11:00:30;6;6;4
70520;PMS5003;58442;52.716;23.560;2023-03-05T11:02:34;4;4;3
70520;PMS5003;58442;52.716;23.560;2023-03-05T11:04:46;6;6;2
70520;PMS5003;58442;52.716;23.560;2023-03-05T11:06:49;7;7;3
70520;PMS5003;58442;52.716;23.560;2023-03-05T11:08:51;2;1;1
70520;PMS5003;58442;52.716;23.560;2023-03-05T11:15:24;26;20;11
70520;PMS5003;58442;52.716;23.560;2023-03-05T11:17:42;48;41;24
70520;PMS5003;58442;52.716;23.560;2023-03-05T11:19:48;55;42;22
70520;PMS5003;58442;52.716;23.560;2023-03-05T11:22:35;21;20;12
70520;PMS5003;58442;52.716;23.560;2023-03-05T11:24:03;19;16;8
70520;PMS5003;58442;52.716;23.560;2023-03-05T11:26:24;10;9;6
70520;PMS5003;58442;52.716;23.560;2023-03-05T11:30:37;41;33;15
70520;PMS5003;58442;52.716;23.560;2023-03-05T11:32:42;25;21;11
70520;PMS5003;58442;52.716;23.560;2023-03-05T11:34:43;10;10;7
70520;PMS5003;58442;52.716;23.560;2023-03-05T11:39:01;41;31;16
70520;PMS5003;58442;52.716;23.560;2023-03-05T11:41:13;10;10;6
70520;PMS5003;58442;52.716;23.560;2023-03-05T11:43:21;14;13;8
70520;PMS5003;58442;52.716;23.560;2023-03-05T11:45:24;9;9;7
70520;PMS5003;58442;52.716;23.560;2023-03-05T11:49:44;15;15;7
70520;PMS5003;58442;52.716;23.560;2023-03-05T11:52:00;23;23;13
70520;PMS5003;58442;52.716;23.560;2023-03-05T11:54:15;33;27;16
70520;PMS5003;58442;52.716;23.560;2023-03-05T11:56:35;40;34;17
70520;PMS5003;58442;52.716;23.560;2023-03-05T12:00:53;19;16;9
70520;PMS5003;58442;52.716;23.560;2023-03-05T12:02:56;27;21;13
70520;PMS5003;58442;52.716;23.560;2023-03-05T12:05:02;4;4;2
70520;PMS5003;58442;52.716;23.560;2023-03-05T12:07:05;41;35;20
70520;PMS5003;58442;52.716;23.560;2023-03-05T12:09:20;19;12;7
70520;PMS5003;58442;52.716;23.560;2023-03-05T12:11:28;15;14;7
70520;PMS5003;58442;52.716;23.560;2023-03-05T12:13:34;5;5;4
70520;PMS5003;58442;52.716;23.560;2023-03-05T12:16:25;22;21;13
70520;PMS5003;58442;52.716;23.560;2023-03-05T12:22:42;6;6;4
70520;PMS5003;58442;52.716;23.560;2023-03-05T12:24:44;27;26;13
70520;PMS5003;58442;52.716;23.560;2023-03-05T12:29:01;20;18;11
70520;PMS5003;58442;52.716;23.560;2023-03-05T12:31:03;13;12;7
70520;PMS5003;58442;52.716;23.560;2023-03-05T12:35:40;5;4;3
70520;PMS5003;58442;52.716;23.560;2023-03-05T12:44:26;29;29;18
70520;PMS5003;58442;52.716;23.560;2023-03-05T12:46:27;62;47;27
70520;PMS5003;58442;52.716;23.560;2023-03-05T12:50:47;96;79;39
70520;PMS5003;58442;52.716;23.560;2023-03-05T12:52:49;68;54;31
70520;PMS5003;58442;52.716;23.560;2023-03-05T13:01:51;35;32;19
70520;PMS5003;58442;52.716;23.560;2023-03-05T13:03:59;64;46;25
70520;PMS5003;58442;52.716;23.560;2023-03-05T13:06:22;19;18;10
70520;PMS5003;58442;52.716;23.560;2023-03-05T13:08:23;22;19;10
70520;PMS5003;58442;52.716;23.560;2023-03-05T13:10:29;58;43;27
70520;PMS5003;58442;52.716;23.560;2023-03-05T13:12:35;25;22;11
70520;PMS5003;58442;52.716;23.560;2023-03-05T13:14:42;8;7;5
70520;PMS5003;58442;52.716;23.560;2023-03-05T13:16:45;7;7;4
70520;PMS5003;58442;52.716;23.560;2023-03-05T13:18:48;12;12;8
70520;PMS5003;58442;52.716;23.560;2023-03-05T13:25:33;23;21;11
70520;PMS5003;58442;52.716;23.560;2023-03-05T13:27:34;39;34;17
70520;PMS5003;58442;52.716;23.560;2023-03-05T13:29:36;36;30;15
70520;PMS5003;58442;52.716;23.560;2023-03-05T13:34:09;2;2;1
70520;PMS5003;58442;52.716;23.560;2023-03-05T13:36:13;17;17;10
70520;PMS5003;58442;52.716;23.560;2023-03-05T13:38:23;10;10;5
70520;PMS5003;58442;52.716;23.560;2023-03-05T13:40:29;8;8;5
70520;PMS5003;58442;52.716;23.560;2023-03-05T13:42:33;27;24;10
70520;PMS5003;58442;52.716;23.560;2023-03-05T13:44:36;8;8;6
70520;PMS5003;58442;52.716;23.560;2023-03-05T13:46:38;79;54;28
70520;PMS5003;58442;52.716;23.560;2023-03-05T13:48:39;11;10;6
70520;PMS5003;58442;52.716;23.560;2023-03-05T13:50:41;35;29;15
70520;PMS5003;58442;52.716;23.560;2023-03-05T13:52:50;8;8;5
70520;PMS5003;58442;52.716;23.560;2023-03-05T13:54:51;41;36;18
70520;PMS5003;58442;52.716;23.560;2023-03-05T13:59:01;21;18;12
70520;PMS5003;58442;52.716;23.560;2023-03-05T14:01:11;20;20;14
70520;PMS5003;58442;52.716;23.560;2023-03-05T14:05:29;18;16;9
70520;PMS5003;58442;52.716;23.560;2023-03-05T14:09:44;9;8;4
70520;PMS5003;58442;52.716;23.560;2023-03-05T14:14:05;62;47;24
70520;PMS5003;58442;52.716;23.560;2023-03-05T14:16:13;28;26;14
70520;PMS5003;58442;52.716;23.560;2023-03-05T14:18:21;9;9;6
70520;PMS5003;58442;52.716;23.560;2023-03-05T14:20:23;9;9;7
70520;PMS5003;58442;52.716;23.560;2023-03-05T14:22:31;65;52;28
70520;PMS5003;58442;52.716;23.560;2023-03-05T14:24:35;71;52;30
70520;PMS5003;58442;52.716;23.560;2023-03-05T14:26:38;15;15;9
70520;PMS5003;58442;52.716;23.560;2023-03-05T14:28:50;17;15;10
70520;PMS5003;58442;52.716;23.560;2023-03-05T14:31:00;24;22;11
70520;PMS5003;58442;52.716;23.560;2023-03-05T14:33:02;79;58;29
70520;PMS5003;58442;52.716;23.560;2023-03-05T14:35:06;17;17;9
70520;PMS5003;58442;52.716;23.560;2023-03-05T14:37:16;48;37;21
70520;PMS5003;58442;52.716;23.560;2023-03-05T14:39:27;11;10;8
70520;PMS5003;58442;52.716;23.560;2023-03-05T14:41:40;20;19;8
70520;PMS5003;58442;52.716;23.560;2023-03-05T14:43:42;80;58;31
70520;PMS5003;58442;52.716;23.560;2023-03-05T14:45:45;46;37;19
70520;PMS5003;58442;52.716;23.560;2023-03-05T14:47:50;22;22;13
70520;PMS5003;58442;52.716;23.560;2023-03-05T14:49:53;63;48;28
70520;PMS5003;58442;52.716;23.560;2023-03-05T14:51:54;16;16;8
70520;PMS5003;58442;52.716;23.560;2023-03-05T14:53:57;19;19;11
70520;PMS5003;58442;52.716;23.560;2023-03-05T14:55:58;12;12;7
70520;PMS5003;58442;52.716;23.560;2023-03-05T14:58:11;55;45;28
70520;PMS5003;58442;52.716;23.560;2023-03-05T15:00:20;62;46;27
70520;PMS5003;58442;52.716;23.560;2023-03-05T15:02:24;35;32;18
70520;PMS5003;58442;52.716;23.560;2023-03-05T15:04:26;21;21;12
70520;PMS5003;58442;52.716;23.560;2023-03-05T15:06:32;16;15;9
70520;PMS5003;58442;52.716;23.560;2023-03-05T15:08:37;30;29;17